Time;durP1;ratioP1;P1;durP2;ratioP2;P2;SDS_P1;SDS_P2;PMS_P1;PMS_P2;Temp;Humidity;BMP_temperature;BMP_pressure;BME280_temperature;BME280_humidity;BME280_pressure;Samples;Min_cycle;Max_cycle;Signal;HPM_P1;HPM_P2
2023/02/09 00:00:39;;;;;;;69.82;30.73;;;-8.30;99.90;;;;;;4149973;28;20045;-63
2023/02/09 00:02:41;;;;;;;93.35;32.50;;;-8.30;99.90;;;;;;4161135;28;20069;-60
2023/02/09 00:04:42;;;;;;;81.55;34.03;;;-8.40;99.90;;;;;;4162589;28;20033;-60
2023/02/09 00:06:43;;;;;;;79.25;32.13;;;-8.40;99.90;;;;;;4147537;28;20046;-60
2023/02/09 00:08:45;;;;;;;77.13;31.75;;;-8.40;99.90;;;;;;4147179;28;20457;-60
2023/02/09 00:10:46;;;;;;;73.45;30.23;;;-8.40;99.90;;;;;;4161561;28;20041;-58
2023/02/09 00:15:07;;;;;;;72.95;31.48;;;-8.40;99.90;;;;;;4133577;28;20430;-58
2023/02/09 00:17:08;;;;;;;68.57;28.80;;;-8.40;99.90;;;;;;4158196;28;20083;-60
2023/02/09 00:19:11;;;;;;;60.90;26.42;;;-8.40;99.90;;;;;;4145616;28;20046;-60
2023/02/09 00:21:12;;;;;;;70.25;26.60;;;-8.50;99.90;;;;;;4146917;28;20088;-60
2023/02/09 00:23:13;;;;;;;62.05;27.65;;;-8.60;99.90;;;;;;4152741;28;20087;-59
2023/02/09 00:25:14;;;;;;;59.13;27.60;;;-8.70;99.90;;;;;;4162859;28;20570;-60
2023/02/09 00:27:16;;;;;;;65.63;28.33;;;-8.80;99.90;;;;;;4163330;28;20033;-62
2023/02/09 00:29:21;;;;;;;65.65;24.88;;;-8.80;99.90;;;;;;4158212;28;20159;-60
2023/02/09 00:31:22;;;;;;;69.68;27.30;;;-8.70;99.90;;;;;;4147456;28;20029;-59
2023/02/09 00:33:23;;;;;;;69.07;26.42;;;-8.80;99.90;;;;;;4146207;28;20490;-65
2023/02/09 00:35:24;;;;;;;63.67;26.50;;;-8.80;99.90;;;;;;4148146;28;20034;-58
2023/02/09 00:37:25;;;;;;;75.78;31.70;;;-8.90;99.90;;;;;;4145884;28;20030;-59
2023/02/09 00:39:27;;;;;;;69.80;29.83;;;-9.00;99.90;;;;;;4147360;28;20073;-60
2023/02/09 00:43:48;;;;;;;72.72;29.73;;;-9.00;99.90;;;;;;4163337;28;20107;-60
2023/02/09 00:45:49;;;;;;;79.53;34.25;;;-9.00;99.90;;;;;;4147389;28;20112;-60
2023/02/09 00:47:50;;;;;;;84.78;34.60;;;-9.10;99.90;;;;;;4156803;28;20111;-59
2023/02/09 00:49:52;;;;;;;78.10;32.67;;;-9.20;99.90;;;;;;4148495;28;20034;-60
2023/02/09 00:51:53;;;;;;;88.88;35.25;;;-9.20;99.90;;;;;;4150554;28;20033;-63
2023/02/09 00:53:54;;;;;;;88.10;34.88;;;-9.30;99.90;;;;;;4158705;28;20100;-59
2023/02/09 00:55:55;;;;;;;81.55;32.95;;;-9.30;99.90;;;;;;4146499;28;20084;-61
2023/02/09 00:57:57;;;;;;;92.55;35.40;;;-9.30;99.90;;;;;;4147462;28;20025;-62
2023/02/09 00:59:58;;;;;;;82.45;34.30;;;-9.30;99.90;;;;;;4145317;28;20089;-63
2023/02/09 01:01:59;;;;;;;93.93;34.17;;;-9.30;99.90;;;;;;4156919;28;20096;-66
2023/02/09 01:04:00;;;;;;;80.45;31.67;;;-9.30;99.90;;;;;;4158759;28;20080;-61
2023/02/09 01:06:02;;;;;;;91.00;35.55;;;-9.20;99.90;;;;;;4163208;28;20030;-58
2023/02/09 01:08:03;;;;;;;87.22;34.88;;;-9.20;99.90;;;;;;4162039;28;20457;-59
2023/02/09 01:10:05;;;;;;;85.65;34.70;;;-9.20;99.90;;;;;;4149006;28;20030;-60
2023/02/09 01:12:06;;;;;;;84.50;33.78;;;-9.20;99.90;;;;;;4155864;28;20094;-64
2023/02/09 01:14:08;;;;;;;79.30;31.83;;;-9.20;99.90;;;;;;4162861;28;20030;-59
2023/02/09 01:16:13;;;;;;;80.60;31.77;;;-9.10;99.90;;;;;;4145841;28;20041;-60
2023/02/09 01:18:14;;;;;;;76.13;30.13;;;-9.10;99.90;;;;;;4157928;28;20025;-57
2023/02/09 01:20:16;;;;;;;76.03;30.95;;;-9.20;99.90;;;;;;4146356;28;20065;-59
2023/02/09 01:22:17;;;;;;;77.30;28.08;;;-9.20;99.90;;;;;;4146597;28;20040;-61
2023/02/09 01:24:18;;;;;;;78.07;28.75;;;-9.20;99.90;;;;;;4145311;28;20033;-59
2023/02/09 01:26:19;;;;;;;73.85;27.48;;;-9.20;99.90;;;;;;4146140;28;20080;-60
2023/02/09 01:28:20;;;;;;;66.97;26.92;;;-9.30;99.90;;;;;;4145602;28;20038;-63
2023/02/09 01:30:22;;;;;;;75.93;29.45;;;-9.40;99.90;;;;;;4145784;28;20084;-64
2023/02/09 01:32:23;;;;;;;73.13;30.42;;;-9.40;99.90;;;;;;4148977;28;20435;-61
2023/02/09 01:34:24;;;;;;;73.30;28.88;;;-9.50;99.90;;;;;;4161010;28;20017;-60
2023/02/09 01:36:25;;;;;;;76.90;30.05;;;-9.50;99.90;;;;;;4161942;28;20103;-60
2023/02/09 01:38:27;;;;;;;75.97;29.35;;;-9.50;99.90;;;;;;4160786;28;20030;-60
2023/02/09 01:40:28;;;;;;;76.85;31.48;;;-9.50;99.90;;;;;;4152258;28;20108;-61
2023/02/09 01:42:29;;;;;;;76.05;29.55;;;-9.50;99.90;;;;;;4145197;28;20382;-60
2023/02/09 01:44:30;;;;;;;77.05;29.30;;;-9.50;99.90;;;;;;4146244;28;20042;-60
2023/02/09 01:46:34;;;;;;;69.60;28.33;;;-9.50;99.90;;;;;;4145187;28;20123;-59
2023/02/09 01:48:35;;;;;;;69.45;28.80;;;-9.50;99.90;;;;;;4146022;28;20046;-60
2023/02/09 01:50:39;;;;;;;67.40;28.70;;;-9.40;99.90;;;;;;4156409;28;20071;-58
2023/02/09 01:52:42;;;;;;;79.43;29.35;;;-9.40;99.90;;;;;;4146272;28;20069;-64
2023/02/09 01:55:00;;;;;;;78.35;29.40;;;-9.40;99.90;;;;;;4144983;28;20405;-66
2023/02/09 01:57:15;;;;;;;74.00;26.55;;;-9.40;99.90;;;;;;4145884;28;20371;-59
2023/02/09 01:59:17;;;;;;;64.18;25.75;;;-9.40;99.90;;;;;;4150378;28;20489;-60
2023/02/09 02:01:20;;;;;;;62.95;26.48;;;-9.40;99.90;;;;;;4162567;28;20079;-60
2023/02/09 02:03:26;;;;;;;67.03;25.67;;;-9.50;99.90;;;;;;4153275;28;20018;-57
2023/02/09 02:05:30;;;;;;;66.55;26.00;;;-9.40;99.90;;;;;;4147506;28;20073;-60
2023/02/09 02:07:50;;;;;;;67.22;26.05;;;-9.40;99.90;;;;;;4144841;28;20064;-59
2023/02/09 02:09:52;;;;;;;62.28;24.15;;;-9.40;99.90;;;;;;4145417;28;20108;-62
2023/02/09 02:11:53;;;;;;;65.30;26.75;;;-9.40;99.90;;;;;;4144742;28;20164;-65
2023/02/09 02:13:56;;;;;;;63.92;26.63;;;-9.50;99.90;;;;;;4145224;28;20072;-58
2023/02/09 02:16:06;;;;;;;63.78;25.48;;;-9.50;99.90;;;;;;4144972;28;20048;-59
2023/02/09 02:18:16;;;;;;;63.72;26.63;;;-9.50;99.90;;;;;;4151078;28;20107;-61
2023/02/09 02:20:50;;;;;;;65.30;25.73;;;-9.50;99.90;;;;;;4153041;28;20461;-69
2023/02/09 02:22:54;;;;;;;62.35;24.60;;;-9.50;99.90;;;;;;4129617;28;20034;-61
2023/02/09 02:25:10;;;;;;;64.18;27.77;;;-9.50;99.90;;;;;;4134070;28;20092;-60
2023/02/09 02:27:48;;;;;;;66.20;25.98;;;-9.50;99.90;;;;;;4145638;28;20030;-60
2023/02/09 02:29:54;;;;;;;66.75;26.15;;;-9.50;99.90;;;;;;4144450;28;20119;-62
2023/02/09 02:32:11;;;;;;;73.35;26.65;;;-9.60;99.90;;;;;;4145608;28;20037;-59
2023/02/09 02:34:31;;;;;;;74.88;27.23;;;-9.50;99.90;;;;;;4144607;28;20072;-60
2023/02/09 02:36:40;;;;;;;69.82;27.85;;;-9.50;99.90;;;;;;4135400;28;20045;-62
2023/02/09 02:39:02;;;;;;;59.20;26.33;;;-9.60;99.90;;;;;;4160613;28;20026;-65
2023/02/09 02:41:11;;;;;;;64.95;26.20;;;-9.60;99.90;;;;;;4161902;28;20033;-61
2023/02/09 02:43:15;;;;;;;67.13;25.45;;;-9.60;99.90;;;;;;4160774;28;20095;-60
2023/02/09 02:45:35;;;;;;;55.95;23.48;;;-9.70;99.90;;;;;;4145568;28;20038;-60
2023/02/09 02:47:39;;;;;;;69.53;23.92;;;-9.70;99.90;;;;;;4144379;28;20462;-65
2023/02/09 02:50:07;;;;;;;58.75;22.42;;;-9.80;99.90;;;;;;4145572;28;20092;-60
2023/02/09 02:52:09;;;;;;;55.33;22.30;;;-9.80;99.90;;;;;;4144503;28;20030;-58
2023/02/09 02:54:17;;;;;;;44.95;20.55;;;-9.80;99.90;;;;;;4144956;28;20041;-67
2023/02/09 02:56:23;;;;;;;50.33;21.05;;;-9.80;99.90;;;;;;4143859;28;20049;-64
2023/02/09 02:58:25;;;;;;;50.72;21.40;;;-9.80;99.90;;;;;;4146473;28;20021;-60
2023/02/09 03:00:36;;;;;;;56.55;22.75;;;-9.80;99.90;;;;;;4148611;28;20022;-59
2023/02/09 03:02:42;;;;;;;49.95;20.40;;;-9.90;99.90;;;;;;4160008;28;20029;-59
2023/02/09 03:04:45;;;;;;;55.00;23.65;;;-10.00;99.90;;;;;;4145926;28;20018;-61
2023/02/09 03:06:46;;;;;;;65.45;25.35;;;-9.90;99.90;;;;;;4145379;28;20115;-60
2023/02/09 03:08:54;;;;;;;63.00;22.20;;;-9.90;99.90;;;;;;4143869;28;20058;-61
2023/02/09 03:10:55;;;;;;;63.72;23.88;;;-10.00;99.90;;;;;;4157546;28;20029;-70
2023/02/09 03:13:02;;;;;;;74.57;25.80;;;-10.10;99.90;;;;;;4147743;28;20482;-59
2023/02/09 03:15:25;;;;;;;61.40;24.27;;;-10.20;99.90;;;;;;4155255;28;20103;-59
2023/02/09 03:17:54;;;;;;;69.95;25.05;;;-10.20;99.90;;;;;;4157294;28;20042;-61
2023/02/09 03:20:01;;;;;;;62.55;25.02;;;-10.30;99.90;;;;;;4145256;28;20041;-58
2023/02/09 03:22:21;;;;;;;67.20;25.00;;;-10.30;99.90;;;;;;4158494;28;20402;-60
2023/02/09 03:24:59;;;;;;;69.18;26.30;;;-10.40;99.90;;;;;;4161049;28;20037;-60
2023/02/09 03:27:09;;;;;;;59.28;24.05;;;-10.40;99.90;;;;;;4159150;28;20041;-60
2023/02/09 03:29:12;;;;;;;62.72;23.73;;;-10.40;99.90;;;;;;4146024;28;20092;-60
2023/02/09 03:31:14;;;;;;;63.40;23.63;;;-10.50;99.90;;;;;;4144071;28;20057;-59
2023/02/09 03:33:19;;;;;;;54.35;23.13;;;-10.50;99.90;;;;;;4147918;28;20080;-59
2023/02/09 03:35:25;;;;;;;56.88;23.63;;;-10.60;99.90;;;;;;4152146;28;20026;-59
2023/02/09 03:37:26;;;;;;;51.83;21.75;;;-10.70;99.90;;;;;;4145154;28;20026;-59
2023/02/09 03:39:27;;;;;;;60.58;23.67;;;-10.70;99.90;;;;;;4143474;28;20092;-69
2023/02/09 03:41:28;;;;;;;58.15;23.48;;;-10.80;99.90;;;;;;4146070;28;20422;-58
2023/02/09 03:45:49;;;;;;;53.58;22.42;;;-10.80;99.90;;;;;;4145309;28;20095;-59
2023/02/09 03:47:50;;;;;;;58.95;24.08;;;-10.80;99.90;;;;;;4152132;28;20083;-74
2023/02/09 03:49:52;;;;;;;63.70;22.83;;;-10.80;99.90;;;;;;4148439;28;20485;-59
2023/02/09 03:51:53;;;;;;;70.90;25.60;;;-10.90;99.90;;;;;;4144318;28;20030;-58
2023/02/09 03:53:55;;;;;;;63.25;26.65;;;-11.00;99.90;;;;;;4144867;28;20034;-59
2023/02/09 03:55:56;;;;;;;70.55;26.83;;;-11.00;99.90;;;;;;4143759;28;20022;-59
2023/02/09 03:57:57;;;;;;;67.97;26.83;;;-11.10;99.90;;;;;;4144811;28;20088;-59
2023/02/09 04:00:00;;;;;;;64.88;27.55;;;-11.00;99.90;;;;;;4147300;28;20556;-59
2023/02/09 04:02:02;;;;;;;70.00;27.67;;;-11.00;99.90;;;;;;4156810;28;20025;-68
2023/02/09 04:04:04;;;;;;;75.93;26.25;;;-11.00;99.90;;;;;;4150220;28;20042;-61
2023/02/09 04:06:08;;;;;;;69.78;26.00;;;-11.00;99.90;;;;;;4144113;28;20089;-60
2023/02/09 04:08:09;;;;;;;63.58;26.05;;;-11.10;99.90;;;;;;4149568;28;20144;-59
2023/02/09 04:10:11;;;;;;;62.58;23.85;;;-11.10;99.90;;;;;;4151148;28;20096;-62
2023/02/09 04:12:12;;;;;;;71.03;24.15;;;-11.20;99.90;;;;;;4146298;28;20175;-65
2023/02/09 04:14:14;;;;;;;64.38;23.63;;;-11.20;99.90;;;;;;4147369;28;20050;-65
2023/02/09 04:16:16;;;;;;;73.22;24.55;;;-11.20;99.90;;;;;;4142962;28;20380;-60
2023/02/09 04:18:18;;;;;;;66.40;25.63;;;-11.20;99.90;;;;;;4150211;28;20026;-59
2023/02/09 04:20:19;;;;;;;66.57;26.40;;;-11.20;99.90;;;;;;4147411;28;20387;-60
2023/02/09 04:22:20;;;;;;;58.00;23.95;;;-11.30;99.90;;;;;;4146684;28;20033;-74
2023/02/09 04:24:21;;;;;;;71.80;25.40;;;-11.30;99.90;;;;;;4160688;28;20090;-66
2023/02/09 04:26:23;;;;;;;61.63;24.05;;;-11.40;99.90;;;;;;4162621;28;20037;-69
2023/02/09 04:28:24;;;;;;;61.08;25.08;;;-11.40;99.90;;;;;;4163832;28;20037;-62
2023/02/09 04:30:25;;;;;;;63.00;25.73;;;-11.40;99.90;;;;;;4160248;28;20481;-60
2023/02/09 04:32:26;;;;;;;68.38;27.15;;;-11.40;99.90;;;;;;4162835;28;21565;-61
2023/02/09 04:34:27;;;;;;;69.63;26.33;;;-11.30;99.90;;;;;;4147368;28;20099;-59
2023/02/09 04:36:29;;;;;;;58.47;24.70;;;-11.20;99.90;;;;;;4159780;28;20037;-62
2023/02/09 04:38:30;;;;;;;69.13;24.77;;;-11.20;99.90;;;;;;4161443;28;20030;-61
2023/02/09 04:40:31;;;;;;;69.97;25.10;;;-11.10;99.90;;;;;;4152738;28;20034;-61
2023/02/09 04:42:32;;;;;;;69.00;24.38;;;-11.00;99.90;;;;;;4158163;28;20033;-71
2023/02/09 04:44:33;;;;;;;60.92;25.92;;;-11.00;99.90;;;;;;4150295;28;20092;-73
2023/02/09 04:46:35;;;;;;;71.90;26.55;;;-11.00;99.90;;;;;;4147865;28;20828;-62
2023/02/09 04:48:36;;;;;;;66.70;24.70;;;-11.00;99.90;;;;;;4149343;28;20041;-69
2023/02/09 04:50:37;;;;;;;62.38;25.52;;;-10.90;99.90;;;;;;4146998;28;20029;-69
2023/02/09 04:52:38;;;;;;;70.18;24.50;;;-11.00;99.90;;;;;;4146223;28;20548;-59
2023/02/09 04:54:39;;;;;;;68.38;27.13;;;-11.10;99.90;;;;;;4154707;28;20025;-62
2023/02/09 04:56:41;;;;;;;64.40;25.02;;;-11.10;99.90;;;;;;4158615;28;20079;-61
2023/02/09 05:01:02;;;;;;;70.35;25.77;;;-11.20;99.90;;;;;;4153701;28;20146;-60
2023/02/09 05:03:03;;;;;;;68.50;27.33;;;-11.10;99.90;;;;;;4153598;28;20091;-61
2023/02/09 05:05:05;;;;;;;70.55;27.27;;;-11.10;99.90;;;;;;4144828;28;20042;-61
2023/02/09 05:07:06;;;;;;;65.80;26.75;;;-11.20;99.90;;;;;;4149002;28;20030;-61
2023/02/09 05:09:07;;;;;;;79.07;30.48;;;-11.20;99.90;;;;;;4154660;28;20049;-61
2023/02/09 05:11:08;;;;;;;69.43;28.55;;;-11.20;99.90;;;;;;4148572;28;20475;-60
2023/02/09 05:13:09;;;;;;;82.25;30.73;;;-11.20;99.90;;;;;;4155025;28;20571;-61
2023/02/09 05:15:11;;;;;;;83.57;36.53;;;-11.20;99.90;;;;;;4160012;28;20045;-59
2023/02/09 05:17:12;;;;;;;59.65;24.83;;;-11.30;99.90;;;;;;4150533;28;20101;-59
2023/02/09 05:19:13;;;;;;;70.55;25.95;;;-11.30;99.90;;;;;;4152760;28;20033;-62
2023/02/09 05:21:14;;;;;;;71.22;27.08;;;-11.40;99.90;;;;;;4149131;28;20502;-61
2023/02/09 05:23:16;;;;;;;68.40;27.90;;;-11.40;99.90;;;;;;4144427;28;20139;-59
2023/02/09 05:25:17;;;;;;;78.70;29.23;;;-11.40;99.90;;;;;;4146449;28;20026;-60
2023/02/09 05:27:18;;;;;;;88.10;33.25;;;-11.50;99.90;;;;;;4145476;28;20064;-60
2023/02/09 05:29:19;;;;;;;90.88;35.40;;;-11.50;99.90;;;;;;4146340;28;20104;-58
2023/02/09 05:31:21;;;;;;;81.93;32.88;;;-11.50;99.90;;;;;;4145118;28;20037;-61
2023/02/09 05:33:23;;;;;;;88.40;35.08;;;-11.50;99.90;;;;;;4145801;28;20104;-60
2023/02/09 05:35:25;;;;;;;88.97;33.63;;;-11.50;99.90;;;;;;4143935;28;20101;-60
2023/02/09 05:37:26;;;;;;;85.03;31.52;;;-11.50;99.90;;;;;;4155465;28;20502;-62
2023/02/09 05:39:27;;;;;;;77.88;29.17;;;-11.50;99.90;;;;;;4147049;28;20100;-62
2023/02/09 05:43:48;;;;;;;69.65;26.77;;;-11.50;99.90;;;;;;4145261;28;20080;-59
2023/02/09 05:45:49;;;;;;;68.85;26.48;;;-11.50;99.90;;;;;;4144853;28;20034;-59
2023/02/09 05:47:50;;;;;;;75.22;31.45;;;-11.40;99.90;;;;;;4145537;28;20034;-59
2023/02/09 05:49:51;;;;;;;80.65;31.02;;;-11.40;99.90;;;;;;4155107;28;20041;-61
2023/02/09 05:51:52;;;;;;;89.53;34.78;;;-11.40;99.90;;;;;;4156514;28;20095;-61
2023/02/09 05:53:55;;;;;;;80.53;35.15;;;-11.30;99.90;;;;;;4161312;28;20037;-61
2023/02/09 05:55:56;;;;;;;87.78;36.22;;;-11.10;99.90;;;;;;4162226;28;20026;-61
2023/02/09 05:57:57;;;;;;;94.55;35.58;;;-10.90;99.90;;;;;;4160946;28;20092;-62
2023/02/09 05:59:58;;;;;;;88.38;35.55;;;-10.70;99.90;;;;;;4149608;28;20111;-63
2023/02/09 06:02:00;;;;;;;91.97;33.65;;;-10.50;99.90;;;;;;4146692;28;20093;-59
2023/02/09 06:04:01;;;;;;;90.00;33.78;;;-10.30;99.90;;;;;;4145882;28;20038;-61
2023/02/09 06:06:02;;;;;;;83.28;33.13;;;-10.00;99.90;;;;;;4144652;28;20034;-58
2023/02/09 06:08:03;;;;;;;85.82;34.00;;;-9.70;99.90;;;;;;4145788;28;20025;-62
2023/02/09 06:10:05;;;;;;;76.32;30.75;;;-9.50;99.90;;;;;;4144795;28;20099;-60
2023/02/09 06:12:06;;;;;;;72.30;29.83;;;-9.20;99.90;;;;;;4145124;28;20041;-61
2023/02/09 06:14:07;;;;;;;78.13;33.53;;;-8.90;99.90;;;;;;4144621;28;20044;-61
2023/02/09 06:16:08;;;;;;;72.72;30.55;;;-8.70;99.90;;;;;;4145452;28;20830;-72
2023/02/09 06:18:09;;;;;;;68.93;29.63;;;-8.50;99.90;;;;;;4144729;28;20099;-61
2023/02/09 06:20:11;;;;;;;71.85;28.33;;;-8.30;99.90;;;;;;4144903;28;20034;-62
2023/02/09 06:22:12;;;;;;;71.65;30.30;;;-8.10;99.90;;;;;;4145481;28;20072;-62
2023/02/09 06:24:14;;;;;;;70.57;31.77;;;-8.00;99.90;;;;;;4144419;28;20034;-62
2023/02/09 06:26:17;;;;;;;72.75;33.10;;;-7.80;99.90;;;;;;4145281;28;20030;-62
2023/02/09 06:28:19;;;;;;;125.25;49.08;;;-7.60;99.90;;;;;;4144288;28;20033;-68
2023/02/09 06:30:20;;;;;;;129.77;49.75;;;-7.30;99.90;;;;;;4145121;28;20123;-62
2023/02/09 06:32:21;;;;;;;99.65;43.25;;;-7.00;99.90;;;;;;4144250;28;20104;-60
2023/02/09 06:34:24;;;;;;;79.03;34.95;;;-6.80;99.90;;;;;;4144838;28;20498;-61
2023/02/09 06:36:25;;;;;;;86.28;36.05;;;-6.60;99.90;;;;;;4143732;28;20446;-60
2023/02/09 06:38:29;;;;;;;71.30;30.73;;;-6.50;99.90;;;;;;4145276;28;20044;-63
2023/02/09 06:40:30;;;;;;;71.13;31.60;;;-6.50;99.90;;;;;;4148637;28;20092;-63
2023/02/09 06:42:42;;;;;;;76.85;34.42;;;-6.60;99.90;;;;;;4141492;28;20116;-64
2023/02/09 06:44:45;;;;;;;86.07;35.85;;;-6.40;99.90;;;;;;4138961;28;20029;-62
2023/02/09 06:46:46;;;;;;;84.70;37.50;;;-6.30;99.90;;;;;;4142541;28;20482;-63
2023/02/09 06:48:47;;;;;;;89.35;32.33;;;-6.30;99.90;;;;;;4139129;28;20458;-64
2023/02/09 06:50:49;;;;;;;80.28;32.13;;;-6.20;99.90;;;;;;4128185;28;20053;-64
2023/02/09 06:52:50;;;;;;;67.68;31.38;;;-6.50;99.90;;;;;;4130624;28;20030;-62
2023/02/09 06:54:51;;;;;;;82.80;32.95;;;-6.80;99.90;;;;;;4137562;28;20065;-64
2023/02/09 06:56:52;;;;;;;85.28;34.33;;;-6.70;99.90;;;;;;4138564;28;20445;-62
2023/02/09 06:58:54;;;;;;;72.85;33.42;;;-6.60;99.90;;;;;;4138958;28;20037;-62
2023/02/09 07:01:01;;;;;;;83.88;36.03;;;-6.60;99.90;;;;;;4141822;28;20034;-62
2023/02/09 07:03:02;;;;;;;80.50;34.28;;;-6.60;99.90;;;;;;4143625;28;20033;-64
2023/02/09 07:05:04;;;;;;;85.20;35.95;;;-6.40;99.90;;;;;;4142436;28;20425;-62
2023/02/09 07:07:05;;;;;;;81.00;36.28;;;-6.10;99.90;;;;;;4145306;28;20018;-64
2023/02/09 07:09:07;;;;;;;95.35;38.83;;;-5.90;99.90;;;;;;4147770;28;20083;-63
2023/02/09 07:11:10;;;;;;;92.25;37.10;;;-5.40;99.90;;;;;;4160274;28;20034;-62
2023/02/09 07:13:11;;;;;;;75.20;34.88;;;-5.20;99.90;;;;;;4159733;28;20037;-62
2023/02/09 07:15:13;;;;;;;81.07;33.60;;;-4.70;99.90;;;;;;4160136;28;20080;-62
2023/02/09 07:17:14;;;;;;;72.75;32.33;;;-4.40;99.90;;;;;;4148019;28;20042;-73
2023/02/09 07:19:15;;;;;;;75.53;34.10;;;-4.00;99.90;;;;;;4144367;28;20871;-73
2023/02/09 07:21:18;;;;;;;72.40;33.80;;;-3.70;99.90;;;;;;4152757;28;20811;-70
2023/02/09 07:23:19;;;;;;;74.03;32.75;;;-3.40;99.90;;;;;;4159951;28;20332;-62
2023/02/09 07:25:20;;;;;;;73.53;34.85;;;-3.10;99.90;;;;;;4160895;28;20026;-64
2023/02/09 07:27:22;;;;;;;71.70;30.23;;;-2.90;99.90;;;;;;4158603;28;20045;-72
2023/02/09 07:29:23;;;;;;;76.30;32.23;;;-3.00;99.90;;;;;;4158735;28;20030;-61
2023/02/09 07:31:25;;;;;;;65.63;29.43;;;-3.10;99.90;;;;;;4161052;28;20274;-62
2023/02/09 07:33:26;;;;;;;65.07;27.70;;;-2.90;99.90;;;;;;4158421;28;20947;-62
2023/02/09 07:35:28;;;;;;;62.67;29.27;;;-3.00;99.90;;;;;;4161113;28;20333;-62
2023/02/09 07:37:29;;;;;;;61.30;30.07;;;-2.90;99.90;;;;;;4160079;28;20674;-62
2023/02/09 07:39:30;;;;;;;76.30;30.70;;;-3.10;99.90;;;;;;4149847;28;20386;-62
2023/02/09 07:41:32;;;;;;;70.27;31.53;;;-3.50;99.90;;;;;;4159896;28;20271;-61
2023/02/09 07:43:33;;;;;;;72.10;32.10;;;-3.30;99.90;;;;;;4161181;28;20258;-61
2023/02/09 07:45:34;;;;;;;64.50;28.33;;;-3.30;99.90;;;;;;4160012;28;20332;-62
2023/02/09 07:47:37;;;;;;;60.60;27.63;;;-3.10;99.90;;;;;;4163449;28;20356;-62
2023/02/09 07:49:38;;;;;;;52.27;23.50;;;-3.40;99.90;;;;;;4162853;28;20294;-61
2023/02/09 07:51:39;;;;;;;56.03;23.40;;;-3.70;99.90;;;;;;4164631;28;20328;-62
2023/02/09 07:53:40;;;;;;;66.00;28.97;;;-4.00;99.90;;;;;;4163509;28;20250;-61
2023/02/09 07:55:42;;;;;;;56.87;27.00;;;-4.10;99.90;;;;;;4149333;28;20317;-63
2023/02/09 07:57:43;;;;;;;60.40;29.60;;;-4.30;99.90;;;;;;4147796;28;20426;-62
2023/02/09 07:59:44;;;;;;;62.90;29.88;;;-4.20;99.90;;;;;;4146908;28;20088;-61
2023/02/09 08:01:45;;;;;;;57.10;25.92;;;-4.40;99.90;;;;;;4147179;28;20080;-62
2023/02/09 08:03:48;;;;;;;55.67;25.88;;;-4.60;99.90;;;;;;4158970;28;20092;-62
2023/02/09 08:05:49;;;;;;;56.83;26.23;;;-4.50;99.90;;;;;;4162148;28;20083;-61
2023/02/09 08:07:50;;;;;;;62.78;26.50;;;-4.70;99.90;;;;;;4163015;28;20034;-61
2023/02/09 08:09:52;;;;;;;48.08;23.25;;;-4.70;99.90;;;;;;4164000;28;20111;-63
2023/02/09 08:12:00;;;;;;;53.90;24.77;;;-4.90;99.90;;;;;;4159070;28;20471;-62
2023/02/09 08:14:05;;;;;;;56.67;24.60;;;-5.10;99.90;;;;;;4161324;28;20029;-63
2023/02/09 08:16:11;;;;;;;51.05;22.05;;;-5.00;99.90;;;;;;4162314;28;20045;-63
2023/02/09 08:18:20;;;;;;;55.55;26.00;;;-5.30;99.90;;;;;;4158475;28;20123;-65
2023/02/09 08:20:24;;;;;;;55.10;23.92;;;-5.40;99.90;;;;;;4160241;28;20037;-63
2023/02/09 08:22:28;;;;;;;56.85;24.65;;;-5.40;99.90;;;;;;4162470;28;20033;-67
2023/02/09 08:24:30;;;;;;;55.22;26.02;;;-5.70;99.90;;;;;;4152657;28;20112;-69
2023/02/09 08:26:31;;;;;;;60.85;26.48;;;-5.90;99.90;;;;;;4163957;28;20087;-63
2023/02/09 08:28:33;;;;;;;61.95;27.45;;;-6.00;99.90;;;;;;4161123;28;20579;-63
2023/02/09 08:30:34;;;;;;;51.20;24.85;;;-6.10;99.90;;;;;;4163319;28;20037;-63
2023/02/09 08:32:35;;;;;;;59.05;26.70;;;-6.10;99.90;;;;;;4162407;28;20029;-63
2023/02/09 08:34:36;;;;;;;55.90;25.80;;;-5.90;99.90;;;;;;4161496;28;20099;-63
2023/02/09 08:36:40;;;;;;;59.63;27.00;;;-5.70;99.90;;;;;;4157539;28;20048;-62
2023/02/09 08:38:41;;;;;;;60.40;25.67;;;-5.50;99.90;;;;;;4146058;28;20053;-63
2023/02/09 08:40:43;;;;;;;60.42;26.50;;;-5.40;99.90;;;;;;4146750;28;20029;-66
2023/02/09 08:42:44;;;;;;;55.63;25.27;;;-5.30;99.90;;;;;;4146348;28;20049;-61
2023/02/09 08:44:45;;;;;;;51.63;23.75;;;-5.30;99.90;;;;;;4146867;28;20080;-61
2023/02/09 08:46:46;;;;;;;53.25;24.35;;;-5.40;99.90;;;;;;4158308;28;20033;-61
2023/02/09 08:48:47;;;;;;;52.60;25.00;;;-5.60;99.90;;;;;;4156679;28;20548;-63
2023/02/09 08:50:48;;;;;;;58.33;24.95;;;-5.70;99.90;;;;;;4148131;28;20116;-62
2023/02/09 08:52:49;;;;;;;52.28;23.75;;;-5.80;99.90;;;;;;4147104;28;20466;-61
2023/02/09 08:54:51;;;;;;;54.17;24.75;;;-5.90;99.90;;;;;;4145256;28;20030;-62
2023/02/09 08:56:52;;;;;;;56.13;25.20;;;-5.80;99.90;;;;;;4146475;28;20076;-60
2023/02/09 08:58:53;;;;;;;65.72;26.90;;;-5.70;99.90;;;;;;4145727;28;20053;-63
2023/02/09 09:00:58;;;;;;;68.13;25.33;;;-5.50;99.90;;;;;;4152551;28;20052;-62
2023/02/09 09:03:03;;;;;;;62.20;27.48;;;-5.20;99.90;;;;;;4161730;28;20080;-62
2023/02/09 09:05:05;;;;;;;58.00;25.73;;;-5.10;99.90;;;;;;4149408;28;20037;-63
2023/02/09 09:07:06;;;;;;;56.17;26.00;;;-5.30;99.90;;;;;;4149931;28;20034;-62
2023/02/09 09:09:07;;;;;;;58.85;26.02;;;-5.40;99.90;;;;;;4145913;28;20041;-65
2023/02/09 09:11:11;;;;;;;60.53;26.77;;;-5.30;99.90;;;;;;4160124;28;20049;-62
2023/02/09 09:13:12;;;;;;;70.85;27.60;;;-5.40;99.90;;;;;;4161221;28;20137;-61
2023/02/09 09:15:14;;;;;;;64.00;26.27;;;-5.20;99.90;;;;;;4145616;28;20038;-62
2023/02/09 09:17:15;;;;;;;58.90;25.73;;;-5.10;99.90;;;;;;4145395;28;20073;-62
2023/02/09 09:19:16;;;;;;;61.03;24.58;;;-4.90;99.90;;;;;;4146011;28;20034;-62
2023/02/09 09:21:18;;;;;;;63.97;26.25;;;-4.80;99.90;;;;;;4145088;28;20046;-62
2023/02/09 09:23:20;;;;;;;55.95;23.25;;;-4.80;99.90;;;;;;4147856;28;20040;-61
2023/02/09 09:25:21;;;;;;;50.95;23.02;;;-4.70;99.90;;;;;;4145344;28;20022;-61
2023/02/09 09:27:22;;;;;;;50.92;23.90;;;-4.90;99.90;;;;;;4146238;28;20474;-70
2023/02/09 09:29:23;;;;;;;47.55;19.92;;;-4.80;99.90;;;;;;4145974;28;20084;-62
2023/02/09 09:31:24;;;;;;;49.03;21.70;;;-4.70;99.90;;;;;;4146057;28;20100;-65
2023/02/09 09:33:26;;;;;;;58.15;22.83;;;-4.60;99.90;;;;;;4145184;28;20030;-61
2023/02/09 09:35:28;;;;;;;45.13;20.55;;;-4.40;99.90;;;;;;4147525;28;20030;-62
2023/02/09 09:37:29;;;;;;;47.55;20.02;;;-4.40;99.90;;;;;;4154038;28;20149;-61
2023/02/09 09:39:30;;;;;;;43.53;19.98;;;-4.30;99.90;;;;;;4145267;28;20482;-60
2023/02/09 09:41:35;;;;;;;40.80;16.77;;;-4.10;99.90;;;;;;4144819;28;20034;-61
2023/02/09 09:43:39;;;;;;;37.88;15.82;;;-4.00;99.90;;;;;;4144276;28;20068;-63
2023/02/09 09:45:40;;;;;;;49.60;20.15;;;-4.10;99.90;;;;;;4145032;28;20080;-62
2023/02/09 09:47:43;;;;;;;50.80;18.00;;;-4.00;99.90;;;;;;4144494;28;20038;-62
2023/02/09 09:49:44;;;;;;;34.60;13.85;;;-3.70;99.90;;;;;;4144725;28;20521;-61
2023/02/09 09:51:49;;;;;;;46.20;16.33;;;-3.60;99.90;;;;;;4149027;28;20025;-63
2023/02/09 09:53:53;;;;;;;31.85;15.30;;;-3.60;99.90;;;;;;4145869;28;20079;-62
2023/02/09 09:56:00;;;;;;;35.75;14.15;;;-3.60;99.90;;;;;;4144093;28;20034;-62
2023/02/09 09:58:04;;;;;;;26.80;12.93;;;-3.60;99.90;;;;;;4145987;28;20075;-61
2023/02/09 10:00:16;;;;;;;28.35;13.38;;;-3.50;99.90;;;;;;4152284;28;20071;-61
2023/02/09 10:02:37;;;;;;;29.77;13.18;;;-3.50;99.90;;;;;;4147304;28;20018;-62
2023/02/09 10:04:38;;;;;;;34.15;13.88;;;-3.40;99.90;;;;;;4144974;28;20026;-66
2023/02/09 10:06:42;;;;;;;30.58;13.32;;;-3.40;99.90;;;;;;4146632;28;20707;-61
2023/02/09 10:08:58;;;;;;;32.28;12.52;;;-3.40;99.90;;;;;;4143721;28;20493;-60
2023/02/09 10:11:06;;;;;;;20.23;9.63;;;-3.30;99.90;;;;;;4145292;28;20445;-61
2023/02/09 10:13:17;;;;;;;39.05;12.02;;;-3.30;99.90;;;;;;4155390;28;20033;-62
2023/02/09 10:15:38;;;;;;;23.33;10.35;;;-3.20;99.90;;;;;;4162093;28;20072;-62
2023/02/09 10:17:39;;;;;;;34.53;9.60;;;-3.20;99.90;;;;;;4158863;28;20087;-62
2023/02/09 10:19:40;;;;;;;22.88;9.80;;;-3.10;99.90;;;;;;4161317;28;20444;-61
2023/02/09 10:21:42;;;;;;;25.48;11.02;;;-3.00;99.90;;;;;;4154608;28;20046;-61
2023/02/09 10:23:49;;;;;;;21.13;9.73;;;-2.90;99.90;;;;;;4160959;28;20095;-62
2023/02/09 10:26:08;;;;;;;23.25;10.63;;;-2.80;99.90;;;;;;4155448;28;20282;-62
2023/02/09 10:28:21;;;;;;;22.15;9.63;;;-2.70;99.90;;;;;;4145402;28;20029;-62
2023/02/09 10:33:21;;;;;;;21.20;9.18;;;-2.50;99.90;;;;;;4147446;22;20358;-62
2023/02/09 10:35:31;;;;;;;21.23;9.00;;;-2.60;99.90;;;;;;4128157;28;20426;-62
2023/02/09 10:37:36;;;;;;;39.27;13.13;;;-2.60;99.90;;;;;;4129447;28;20329;-62